Immokalee, FL

6:46 PM EDT en Octubre 20, 2014 (GMT -0400)
Florida Specialties | Change Station
CLOSE
Current Station
Estación meteorológica personal
Location: Immokalee, FL
Altura: 26 ft
Estaciones meteorológicas cercanas

Alt 26 ft 26.37 °N, 81.30 °W | Updated 2 minutes ago

Muy nublado
Muy nublado
80.7 ° F
Sensación térmica 84 ° F
N
1.0
Viento Variable Viento desde SE
Gusts 14.0 mph

Hoy
Alta -- | Baja -- ° F
--% Posibilidad de precipitaciones
Ayer
Alta -- | Baja -- ° F
Precip. -- pul
7:27 AM 6:52 PM
Creciente menguante, 9% visible
Presión 29.95 pul
Visibilidad 8.0 Millas
Nubes Despejado
Índice de calor 84 ° F
Punto de rocío 71 ° F
Humedad 72%
Precipitaciones 0.00 pul
Espesor de la nieve No disponible.
UV 0.0 de una escala de 12
Polen 3.60 de una escala de 12
Calidad del aire No disponible.
Flu Activity Local Activity
METAR KIMM 202255Z AUTO 00000KT 8SM CLR 27/21 A2995 RMK A01 P000

More Conditions Fewer Conditions

Presión 29.95 pul
Visibilidad 8.0 Millas
Nubes Despejado
Índice de calor 84 ° F
Punto de rocío 71 ° F
Humedad 72%
Precipitaciones 0.00 pul
Espesor de la nieve No disponible.
UV 0.0 de una escala de 12
Polen 3.60 de una escala de 12
Calidad del aire No disponible.
Flu Activity Local Activity
METAR KIMM 202255Z AUTO 00000KT 8SM CLR 27/21 A2995 RMK A01 P000

More Conditions Fewer Conditions

10-Day Weather Forecast

Almanac

Astronomía

Oct. 20, 2014 Salida Puesta
Hora real 7:27 AM EDT 6:52 PM EDT
Crepúsculo civil 7:03 AM EDT 7:15 PM EDT
Crepúsculo náutico 6:36 AM EDT 7:42 PM EDT
Crepúsculo astronómico 6:09 AM EDT 8:09 PM EDT
Luna 4:31 AM EDT 4:59 PM EDT
Horas de luz 12h 12m
Horas de luz
11h 25m
Creciente menguante, 9% of the Moon is Illuminated
Hoy
Creciente menguante
Oct 23
Nueva
Oct 30
Cuarto creciente
Nov 6
Luna llena
Nov 14
Cuarto menguante

Extremos de hoy

Máximos del estado Bajos del estado

Community

WunderPhotos

Upload Photos

1,763,541 ¡fotos cargadas!

WunderBlogs® & News

By Dr. Jeff Masters
Director of Meteorology, Weather Underground
By Kari Strenfel
Meteorologist, Weather Underground
By Christopher C. Burt
Weather Historian, Weather Underground
October 20, 2014
October 20, 2014
October 20, 2014

Nearby

Grosos de nieve

Estación Profundido Altura
No tenemos constancia de nieve nueva.

Actividad de terremotos

Ciudad Distance Mag. Tiempo y dato
No hay informes recientes de la actividad sísmica.
Magnitud mínima muestra es 2,5.

Temperaturas de aguas costeras

Lugar Temperatura
Sin partes meteorológicos de las estaciones

Estaciones meteorológicas cercanas